sensor_id;sensor_type;location;lat;lon;timestamp;P1;durP1;ratioP1;P2;durP2;ratioP2
74679;SDS011;63211;48.548;2.704;2023-11-19T00:00:41;0.25;;;0.10;;
74679;SDS011;63211;48.548;2.704;2023-11-19T00:03:08;0.20;;;0.10;;
74679;SDS011;63211;48.548;2.704;2023-11-19T00:05:36;0.35;;;0.10;;
74679;SDS011;63211;48.548;2.704;2023-11-19T00:08:02;1.00;;;0.30;;
74679;SDS011;63211;48.548;2.704;2023-11-19T00:10:29;0.52;;;0.17;;
74679;SDS011;63211;48.548;2.704;2023-11-19T00:12:55;0.30;;;0.10;;
74679;SDS011;63211;48.548;2.704;2023-11-19T00:15:24;0.82;;;0.10;;
74679;SDS011;63211;48.548;2.704;2023-11-19T00:17:50;1.10;;;0.20;;
74679;SDS011;63211;48.548;2.704;2023-11-19T00:20:17;0.30;;;0.13;;
74679;SDS011;63211;48.548;2.704;2023-11-19T00:22:44;0.60;;;0.20;;
74679;SDS011;63211;48.548;2.704;2023-11-19T00:25:13;0.45;;;0.10;;
74679;SDS011;63211;48.548;2.704;2023-11-19T00:27:40;0.45;;;0.17;;
74679;SDS011;63211;48.548;2.704;2023-11-19T00:30:09;0.45;;;0.10;;
74679;SDS011;63211;48.548;2.704;2023-11-19T00:32:38;0.60;;;0.20;;
74679;SDS011;63211;48.548;2.704;2023-11-19T00:35:04;0.20;;;0.10;;
74679;SDS011;63211;48.548;2.704;2023-11-19T00:37:32;0.13;;;0.00;;
74679;SDS011;63211;48.548;2.704;2023-11-19T00:39:58;0.40;;;0.10;;
74679;SDS011;63211;48.548;2.704;2023-11-19T00:42:25;0.50;;;0.10;;
74679;SDS011;63211;48.548;2.704;2023-11-19T00:44:52;0.30;;;0.10;;
74679;SDS011;63211;48.548;2.704;2023-11-19T00:47:19;0.20;;;0.10;;
74679;SDS011;63211;48.548;2.704;2023-11-19T00:49:47;0.13;;;0.10;;
74679;SDS011;63211;48.548;2.704;2023-11-19T00:52:15;1.33;;;0.30;;
74679;SDS011;63211;48.548;2.704;2023-11-19T00:54:41;0.73;;;0.40;;
74679;SDS011;63211;48.548;2.704;2023-11-19T00:57:08;0.73;;;0.17;;
74679;SDS011;63211;48.548;2.704;2023-11-19T00:59:34;0.40;;;0.10;;
74679;SDS011;63211;48.548;2.704;2023-11-19T01:02:01;0.90;;;0.10;;
74679;SDS011;63211;48.548;2.704;2023-11-19T01:04:29;0.30;;;0.10;;
74679;SDS011;63211;48.548;2.704;2023-11-19T01:07:00;0.22;;;0.10;;
74679;SDS011;63211;48.548;2.704;2023-11-19T01:09:28;1.15;;;0.22;;
74679;SDS011;63211;48.548;2.704;2023-11-19T01:11:57;0.45;;;0.17;;
74679;SDS011;63211;48.548;2.704;2023-11-19T01:14:23;0.45;;;0.30;;
74679;SDS011;63211;48.548;2.704;2023-11-19T01:16:50;1.73;;;0.22;;
74679;SDS011;63211;48.548;2.704;2023-11-19T01:19:19;0.20;;;0.10;;
74679;SDS011;63211;48.548;2.704;2023-11-19T01:21:46;0.30;;;0.10;;
74679;SDS011;63211;48.548;2.704;2023-11-19T01:24:14;0.73;;;0.25;;
74679;SDS011;63211;48.548;2.704;2023-11-19T01:26:41;1.08;;;0.20;;
74679;SDS011;63211;48.548;2.704;2023-11-19T01:29:10;0.68;;;0.10;;
74679;SDS011;63211;48.548;2.704;2023-11-19T01:31:38;0.10;;;0.10;;
74679;SDS011;63211;48.548;2.704;2023-11-19T01:34:05;0.28;;;0.08;;
74679;SDS011;63211;48.548;2.704;2023-11-19T01:36:31;0.52;;;0.13;;
74679;SDS011;63211;48.548;2.704;2023-11-19T01:38:58;0.28;;;0.10;;
74679;SDS011;63211;48.548;2.704;2023-11-19T01:41:26;0.32;;;0.10;;
74679;SDS011;63211;48.548;2.704;2023-11-19T01:43:53;0.22;;;0.10;;
74679;SDS011;63211;48.548;2.704;2023-11-19T01:46:19;0.77;;;0.25;;
74679;SDS011;63211;48.548;2.704;2023-11-19T01:48:46;0.50;;;0.10;;
74679;SDS011;63211;48.548;2.704;2023-11-19T01:51:13;0.10;;;0.00;;
74679;SDS011;63211;48.548;2.704;2023-11-19T01:53:41;0.63;;;0.10;;
74679;SDS011;63211;48.548;2.704;2023-11-19T01:56:09;0.25;;;0.10;;
74679;SDS011;63211;48.548;2.704;2023-11-19T01:58:39;0.10;;;0.00;;
74679;SDS011;63211;48.548;2.704;2023-11-19T02:01:07;0.85;;;0.13;;
74679;SDS011;63211;48.548;2.704;2023-11-19T02:03:36;0.13;;;0.03;;
74679;SDS011;63211;48.548;2.704;2023-11-19T02:06:03;0.13;;;0.03;;
74679;SDS011;63211;48.548;2.704;2023-11-19T02:08:31;0.25;;;0.10;;
74679;SDS011;63211;48.548;2.704;2023-11-19T02:10:57;0.40;;;0.10;;
74679;SDS011;63211;48.548;2.704;2023-11-19T02:13:25;0.40;;;0.13;;
74679;SDS011;63211;48.548;2.704;2023-11-19T02:15:53;0.63;;;0.13;;
74679;SDS011;63211;48.548;2.704;2023-11-19T02:18:21;0.20;;;0.10;;
74679;SDS011;63211;48.548;2.704;2023-11-19T02:20:49;1.25;;;0.20;;
74679;SDS011;63211;48.548;2.704;2023-11-19T02:23:16;0.70;;;0.10;;
74679;SDS011;63211;48.548;2.704;2023-11-19T02:25:46;0.60;;;0.05;;
74679;SDS011;63211;48.548;2.704;2023-11-19T02:28:22;0.30;;;0.13;;
74679;SDS011;63211;48.548;2.704;2023-11-19T02:30:49;0.20;;;0.10;;
74679;SDS011;63211;48.548;2.704;2023-11-19T02:33:15;1.95;;;0.13;;
74679;SDS011;63211;48.548;2.704;2023-11-19T02:35:42;0.98;;;0.10;;
74679;SDS011;63211;48.548;2.704;2023-11-19T02:38:08;1.48;;;0.10;;
74679;SDS011;63211;48.548;2.704;2023-11-19T02:40:36;1.38;;;0.10;;
74679;SDS011;63211;48.548;2.704;2023-11-19T02:43:02;2.83;;;0.20;;
74679;SDS011;63211;48.548;2.704;2023-11-19T02:45:31;1.00;;;0.15;;
74679;SDS011;63211;48.548;2.704;2023-11-19T02:47:58;0.22;;;0.10;;
74679;SDS011;63211;48.548;2.704;2023-11-19T02:50:26;0.75;;;0.10;;
74679;SDS011;63211;48.548;2.704;2023-11-19T02:52:53;0.30;;;0.10;;
74679;SDS011;63211;48.548;2.704;2023-11-19T02:55:22;0.57;;;0.08;;
74679;SDS011;63211;48.548;2.704;2023-11-19T02:57:49;0.47;;;0.10;;
74679;SDS011;63211;48.548;2.704;2023-11-19T03:00:18;0.25;;;0.17;;
74679;SDS011;63211;48.548;2.704;2023-11-19T03:02:50;1.27;;;0.47;;
74679;SDS011;63211;48.548;2.704;2023-11-19T03:05:24;0.45;;;0.20;;
74679;SDS011;63211;48.548;2.704;2023-11-19T03:07:55;0.30;;;0.10;;
74679;SDS011;63211;48.548;2.704;2023-11-19T03:10:21;0.52;;;0.10;;
74679;SDS011;63211;48.548;2.704;2023-11-19T03:12:49;0.38;;;0.20;;
74679;SDS011;63211;48.548;2.704;2023-11-19T03:15:15;0.40;;;0.15;;
74679;SDS011;63211;48.548;2.704;2023-11-19T03:17:42;1.20;;;0.30;;
74679;SDS011;63211;48.548;2.704;2023-11-19T03:20:11;0.20;;;0.00;;
74679;SDS011;63211;48.548;2.704;2023-11-19T03:22:40;0.40;;;0.10;;
74679;SDS011;63211;48.548;2.704;2023-11-19T03:25:07;0.17;;;0.05;;
74679;SDS011;63211;48.548;2.704;2023-11-19T03:27:34;0.90;;;0.10;;
74679;SDS011;63211;48.548;2.704;2023-11-19T03:30:01;0.20;;;0.00;;
74679;SDS011;63211;48.548;2.704;2023-11-19T03:32:29;1.25;;;0.10;;
74679;SDS011;63211;48.548;2.704;2023-11-19T03:34:56;1.70;;;0.20;;
74679;SDS011;63211;48.548;2.704;2023-11-19T03:37:24;0.43;;;0.13;;
74679;SDS011;63211;48.548;2.704;2023-11-19T03:39:51;0.05;;;0.03;;
74679;SDS011;63211;48.548;2.704;2023-11-19T03:42:18;0.03;;;0.00;;
74679;SDS011;63211;48.548;2.704;2023-11-19T03:44:45;0.30;;;0.10;;
74679;SDS011;63211;48.548;2.704;2023-11-19T03:47:12;1.30;;;0.00;;
74679;SDS011;63211;48.548;2.704;2023-11-19T03:49:38;1.60;;;0.10;;
74679;SDS011;63211;48.548;2.704;2023-11-19T03:52:05;0.05;;;0.00;;
74679;SDS011;63211;48.548;2.704;2023-11-19T03:54:32;0.03;;;0.00;;
74679;SDS011;63211;48.548;2.704;2023-11-19T03:56:59;0.10;;;0.10;;
74679;SDS011;63211;48.548;2.704;2023-11-19T03:59:28;0.32;;;0.00;;
74679;SDS011;63211;48.548;2.704;2023-11-19T04:01:54;0.20;;;0.05;;
74679;SDS011;63211;48.548;2.704;2023-11-19T04:04:21;0.03;;;0.00;;
74679;SDS011;63211;48.548;2.704;2023-11-19T04:06:48;0.20;;;0.10;;
74679;SDS011;63211;48.548;2.704;2023-11-19T04:09:14;0.10;;;0.08;;
74679;SDS011;63211;48.548;2.704;2023-11-19T04:11:42;0.10;;;0.10;;
74679;SDS011;63211;48.548;2.704;2023-11-19T04:14:11;0.10;;;0.00;;
74679;SDS011;63211;48.548;2.704;2023-11-19T04:16:38;0.85;;;0.10;;
74679;SDS011;63211;48.548;2.704;2023-11-19T04:19:05;0.47;;;0.10;;
74679;SDS011;63211;48.548;2.704;2023-11-19T04:21:32;0.15;;;0.10;;
74679;SDS011;63211;48.548;2.704;2023-11-19T04:23:59;0.75;;;0.10;;
74679;SDS011;63211;48.548;2.704;2023-11-19T04:26:25;0.88;;;0.30;;
74679;SDS011;63211;48.548;2.704;2023-11-19T04:28:53;0.77;;;0.03;;
74679;SDS011;63211;48.548;2.704;2023-11-19T04:31:20;0.52;;;0.10;;
74679;SDS011;63211;48.548;2.704;2023-11-19T04:33:47;0.20;;;0.10;;
74679;SDS011;63211;48.548;2.704;2023-11-19T04:36:13;0.10;;;0.00;;
74679;SDS011;63211;48.548;2.704;2023-11-19T04:38:45;0.40;;;0.10;;
74679;SDS011;63211;48.548;2.704;2023-11-19T04:41:11;0.00;;;0.00;;
74679;SDS011;63211;48.548;2.704;2023-11-19T04:43:39;0.10;;;0.00;;
74679;SDS011;63211;48.548;2.704;2023-11-19T04:46:07;0.20;;;0.00;;
74679;SDS011;63211;48.548;2.704;2023-11-19T04:48:35;0.22;;;0.00;;
74679;SDS011;63211;48.548;2.704;2023-11-19T04:51:04;0.68;;;0.10;;
74679;SDS011;63211;48.548;2.704;2023-11-19T04:53:31;0.20;;;0.08;;
74679;SDS011;63211;48.548;2.704;2023-11-19T04:55:57;0.75;;;0.15;;
74679;SDS011;63211;48.548;2.704;2023-11-19T04:58:24;0.65;;;0.10;;
74679;SDS011;63211;48.548;2.704;2023-11-19T05:00:50;0.20;;;0.00;;
74679;SDS011;63211;48.548;2.704;2023-11-19T05:03:19;0.20;;;0.00;;
74679;SDS011;63211;48.548;2.704;2023-11-19T05:05:45;0.50;;;0.03;;
74679;SDS011;63211;48.548;2.704;2023-11-19T05:08:12;0.15;;;0.00;;
74679;SDS011;63211;48.548;2.704;2023-11-19T05:10:38;0.10;;;0.00;;
74679;SDS011;63211;48.548;2.704;2023-11-19T05:13:06;1.00;;;0.10;;
74679;SDS011;63211;48.548;2.704;2023-11-19T05:15:32;0.52;;;0.00;;
74679;SDS011;63211;48.548;2.704;2023-11-19T05:17:59;0.20;;;0.00;;
74679;SDS011;63211;48.548;2.704;2023-11-19T05:20:27;0.10;;;0.03;;
74679;SDS011;63211;48.548;2.704;2023-11-19T05:22:54;0.00;;;0.00;;
74679;SDS011;63211;48.548;2.704;2023-11-19T05:25:20;0.10;;;0.00;;
74679;SDS011;63211;48.548;2.704;2023-11-19T05:27:47;0.55;;;0.08;;
74679;SDS011;63211;48.548;2.704;2023-11-19T05:30:13;0.30;;;0.10;;
74679;SDS011;63211;48.548;2.704;2023-11-19T05:32:40;0.30;;;0.00;;
74679;SDS011;63211;48.548;2.704;2023-11-19T05:35:07;0.03;;;0.00;;
74679;SDS011;63211;48.548;2.704;2023-11-19T05:37:36;0.20;;;0.00;;
74679;SDS011;63211;48.548;2.704;2023-11-19T05:40:02;0.52;;;0.20;;
74679;SDS011;63211;48.548;2.704;2023-11-19T05:42:39;0.00;;;0.00;;
74679;SDS011;63211;48.548;2.704;2023-11-19T05:45:06;0.20;;;0.10;;
74679;SDS011;63211;48.548;2.704;2023-11-19T05:47:34;0.20;;;0.00;;
74679;SDS011;63211;48.548;2.704;2023-11-19T05:50:00;1.10;;;0.10;;
74679;SDS011;63211;48.548;2.704;2023-11-19T05:52:27;0.45;;;0.00;;
74679;SDS011;63211;48.548;2.704;2023-11-19T05:54:59;1.02;;;0.52;;
74679;SDS011;63211;48.548;2.704;2023-11-19T05:59:55;0.28;;;0.00;;
74679;SDS011;63211;48.548;2.704;2023-11-19T06:02:22;0.10;;;0.00;;
74679;SDS011;63211;48.548;2.704;2023-11-19T06:04:48;0.20;;;0.10;;
74679;SDS011;63211;48.548;2.704;2023-11-19T06:07:15;0.25;;;0.10;;
74679;SDS011;63211;48.548;2.704;2023-11-19T06:09:41;0.20;;;0.00;;
74679;SDS011;63211;48.548;2.704;2023-11-19T06:12:09;0.40;;;0.03;;
74679;SDS011;63211;48.548;2.704;2023-11-19T06:14:36;0.10;;;0.00;;
74679;SDS011;63211;48.548;2.704;2023-11-19T06:17:01;0.10;;;0.00;;
74679;SDS011;63211;48.548;2.704;2023-11-19T06:19:29;0.22;;;0.08;;
74679;SDS011;63211;48.548;2.704;2023-11-19T06:21:56;0.28;;;0.03;;
74679;SDS011;63211;48.548;2.704;2023-11-19T06:24:23;2.55;;;0.10;;
74679;SDS011;63211;48.548;2.704;2023-11-19T06:26:49;0.20;;;0.10;;
74679;SDS011;63211;48.548;2.704;2023-11-19T06:29:17;0.20;;;0.05;;
74679;SDS011;63211;48.548;2.704;2023-11-19T06:31:44;0.15;;;0.10;;
74679;SDS011;63211;48.548;2.704;2023-11-19T06:34:13;0.00;;;0.00;;
74679;SDS011;63211;48.548;2.704;2023-11-19T06:36:40;0.10;;;0.00;;
74679;SDS011;63211;48.548;2.704;2023-11-19T06:39:08;0.00;;;0.00;;
74679;SDS011;63211;48.548;2.704;2023-11-19T06:41:35;0.00;;;0.00;;
74679;SDS011;63211;48.548;2.704;2023-11-19T06:44:02;0.10;;;0.00;;
74679;SDS011;63211;48.548;2.704;2023-11-19T06:46:31;0.10;;;0.00;;
74679;SDS011;63211;48.548;2.704;2023-11-19T06:48:57;0.85;;;0.00;;
74679;SDS011;63211;48.548;2.704;2023-11-19T06:51:24;0.00;;;0.00;;
74679;SDS011;63211;48.548;2.704;2023-11-19T06:53:51;0.38;;;0.05;;
74679;SDS011;63211;48.548;2.704;2023-11-19T06:56:19;0.20;;;0.00;;
74679;SDS011;63211;48.548;2.704;2023-11-19T06:58:47;0.32;;;0.00;;
74679;SDS011;63211;48.548;2.704;2023-11-19T07:01:13;0.00;;;0.00;;
74679;SDS011;63211;48.548;2.704;2023-11-19T07:03:41;0.00;;;0.00;;
74679;SDS011;63211;48.548;2.704;2023-11-19T07:06:09;0.00;;;0.00;;
74679;SDS011;63211;48.548;2.704;2023-11-19T07:08:38;0.45;;;0.00;;
74679;SDS011;63211;48.548;2.704;2023-11-19T07:11:04;0.43;;;0.00;;
74679;SDS011;63211;48.548;2.704;2023-11-19T07:13:31;0.38;;;0.00;;
74679;SDS011;63211;48.548;2.704;2023-11-19T07:15:58;0.38;;;0.10;;
74679;SDS011;63211;48.548;2.704;2023-11-19T07:18:24;1.65;;;0.10;;
74679;SDS011;63211;48.548;2.704;2023-11-19T07:20:53;0.00;;;0.00;;
74679;SDS011;63211;48.548;2.704;2023-11-19T07:23:19;0.00;;;0.00;;
74679;SDS011;63211;48.548;2.704;2023-11-19T07:25:46;0.10;;;0.00;;
74679;SDS011;63211;48.548;2.704;2023-11-19T07:28:15;0.30;;;0.10;;
74679;SDS011;63211;48.548;2.704;2023-11-19T07:30:42;0.50;;;0.10;;
74679;SDS011;63211;48.548;2.704;2023-11-19T07:33:09;0.38;;;0.00;;
74679;SDS011;63211;48.548;2.704;2023-11-19T07:35:35;0.05;;;0.00;;
74679;SDS011;63211;48.548;2.704;2023-11-19T07:38:03;0.47;;;0.10;;
74679;SDS011;63211;48.548;2.704;2023-11-19T07:40:30;0.17;;;0.00;;
74679;SDS011;63211;48.548;2.704;2023-11-19T07:42:57;0.40;;;0.00;;
74679;SDS011;63211;48.548;2.704;2023-11-19T07:45:23;0.30;;;0.10;;
74679;SDS011;63211;48.548;2.704;2023-11-19T07:47:50;0.20;;;0.00;;
74679;SDS011;63211;48.548;2.704;2023-11-19T07:50:16;0.82;;;0.10;;
74679;SDS011;63211;48.548;2.704;2023-11-19T07:52:45;0.00;;;0.00;;
74679;SDS011;63211;48.548;2.704;2023-11-19T07:55:13;0.10;;;0.00;;
74679;SDS011;63211;48.548;2.704;2023-11-19T07:57:39;0.13;;;0.00;;
74679;SDS011;63211;48.548;2.704;2023-11-19T08:00:06;0.32;;;0.10;;
74679;SDS011;63211;48.548;2.704;2023-11-19T08:02:37;0.22;;;0.10;;
74679;SDS011;63211;48.548;2.704;2023-11-19T08:05:04;0.10;;;0.00;;
74679;SDS011;63211;48.548;2.704;2023-11-19T08:07:30;0.10;;;0.00;;
74679;SDS011;63211;48.548;2.704;2023-11-19T08:09:57;0.05;;;0.00;;
74679;SDS011;63211;48.548;2.704;2023-11-19T08:12:26;0.00;;;0.00;;
74679;SDS011;63211;48.548;2.704;2023-11-19T08:14:52;0.10;;;0.00;;
74679;SDS011;63211;48.548;2.704;2023-11-19T08:17:19;0.10;;;0.00;;
74679;SDS011;63211;48.548;2.704;2023-11-19T08:19:48;0.10;;;0.00;;
74679;SDS011;63211;48.548;2.704;2023-11-19T08:22:14;0.40;;;0.00;;
74679;SDS011;63211;48.548;2.704;2023-11-19T08:24:41;0.30;;;0.00;;
74679;SDS011;63211;48.548;2.704;2023-11-19T08:27:08;0.03;;;0.00;;
74679;SDS011;63211;48.548;2.704;2023-11-19T08:29:36;0.32;;;0.00;;
74679;SDS011;63211;48.548;2.704;2023-11-19T08:32:02;1.85;;;0.10;;
74679;SDS011;63211;48.548;2.704;2023-11-19T08:34:30;0.00;;;0.00;;
74679;SDS011;63211;48.548;2.704;2023-11-19T08:36:56;0.50;;;0.08;;
74679;SDS011;63211;48.548;2.704;2023-11-19T08:39:23;0.73;;;0.10;;
74679;SDS011;63211;48.548;2.704;2023-11-19T08:41:49;0.17;;;0.00;;
74679;SDS011;63211;48.548;2.704;2023-11-19T08:44:16;1.27;;;0.20;;
74679;SDS011;63211;48.548;2.704;2023-11-19T08:46:49;2.38;;;0.22;;
74679;SDS011;63211;48.548;2.704;2023-11-19T08:49:15;3.00;;;0.25;;
74679;SDS011;63211;48.548;2.704;2023-11-19T08:51:42;9.55;;;0.50;;
74679;SDS011;63211;48.548;2.704;2023-11-19T08:54:09;4.82;;;0.40;;
74679;SDS011;63211;48.548;2.704;2023-11-19T08:56:36;5.53;;;0.60;;
74679;SDS011;63211;48.548;2.704;2023-11-19T08:59:04;3.10;;;0.73;;
74679;SDS011;63211;48.548;2.704;2023-11-19T09:01:30;2.05;;;0.30;;
74679;SDS011;63211;48.548;2.704;2023-11-19T09:03:58;3.35;;;0.30;;
74679;SDS011;63211;48.548;2.704;2023-11-19T09:06:25;1.35;;;0.20;;
74679;SDS011;63211;48.548;2.704;2023-11-19T09:08:52;7.90;;;0.50;;
74679;SDS011;63211;48.548;2.704;2023-11-19T09:11:23;1.83;;;0.30;;
74679;SDS011;63211;48.548;2.704;2023-11-19T09:13:49;0.57;;;0.10;;
74679;SDS011;63211;48.548;2.704;2023-11-19T09:16:16;2.88;;;0.40;;
74679;SDS011;63211;48.548;2.704;2023-11-19T09:18:43;1.75;;;0.30;;
74679;SDS011;63211;48.548;2.704;2023-11-19T09:21:11;1.00;;;0.20;;
74679;SDS011;63211;48.548;2.704;2023-11-19T09:23:38;3.65;;;0.50;;
74679;SDS011;63211;48.548;2.704;2023-11-19T09:26:08;0.77;;;0.22;;
74679;SDS011;63211;48.548;2.704;2023-11-19T09:31:02;1.30;;;0.28;;
74679;SDS011;63211;48.548;2.704;2023-11-19T09:33:29;1.38;;;0.15;;
74679;SDS011;63211;48.548;2.704;2023-11-19T09:35:56;0.40;;;0.08;;
74679;SDS011;63211;48.548;2.704;2023-11-19T09:38:24;0.68;;;0.20;;
74679;SDS011;63211;48.548;2.704;2023-11-19T09:40:50;0.68;;;0.20;;
74679;SDS011;63211;48.548;2.704;2023-11-19T09:43:17;0.90;;;0.15;;
74679;SDS011;63211;48.548;2.704;2023-11-19T09:45:45;0.98;;;0.28;;
74679;SDS011;63211;48.548;2.704;2023-11-19T09:48:15;1.25;;;0.40;;
74679;SDS011;63211;48.548;2.704;2023-11-19T09:50:43;1.55;;;0.20;;
74679;SDS011;63211;48.548;2.704;2023-11-19T09:53:10;13.70;;;5.63;;
74679;SDS011;63211;48.548;2.704;2023-11-19T09:55:38;7.22;;;5.68;;
74679;SDS011;63211;48.548;2.704;2023-11-19T09:58:05;5.63;;;2.83;;
74679;SDS011;63211;48.548;2.704;2023-11-19T10:00:33;26.30;;;15.00;;
74679;SDS011;63211;48.548;2.704;2023-11-19T10:02:59;10.02;;;5.60;;
74679;SDS011;63211;48.548;2.704;2023-11-19T10:05:27;8.82;;;5.60;;
74679;SDS011;63211;48.548;2.704;2023-11-19T10:07:53;16.90;;;9.98;;
74679;SDS011;63211;48.548;2.704;2023-11-19T10:10:20;7.78;;;3.55;;
74679;SDS011;63211;48.548;2.704;2023-11-19T10:12:50;8.18;;;5.22;;
74679;SDS011;63211;48.548;2.704;2023-11-19T10:15:20;7.45;;;3.10;;
74679;SDS011;63211;48.548;2.704;2023-11-19T10:17:49;6.85;;;3.60;;
74679;SDS011;63211;48.548;2.704;2023-11-19T10:20:15;4.30;;;1.95;;
74679;SDS011;63211;48.548;2.704;2023-11-19T10:22:42;7.78;;;2.00;;
74679;SDS011;63211;48.548;2.704;2023-11-19T10:25:21;3.38;;;1.83;;
74679;SDS011;63211;48.548;2.704;2023-11-19T10:27:49;1.55;;;0.88;;
74679;SDS011;63211;48.548;2.704;2023-11-19T10:30:17;2.50;;;1.00;;
74679;SDS011;63211;48.548;2.704;2023-11-19T10:32:44;3.40;;;0.95;;
74679;SDS011;63211;48.548;2.704;2023-11-19T10:35:11;3.88;;;0.98;;
74679;SDS011;63211;48.548;2.704;2023-11-19T10:37:38;3.10;;;0.60;;
74679;SDS011;63211;48.548;2.704;2023-11-19T10:40:06;3.08;;;0.70;;
74679;SDS011;63211;48.548;2.704;2023-11-19T10:42:35;1.00;;;0.55;;
74679;SDS011;63211;48.548;2.704;2023-11-19T10:45:03;1.92;;;0.50;;
74679;SDS011;63211;48.548;2.704;2023-11-19T10:47:30;4.07;;;0.70;;
74679;SDS011;63211;48.548;2.704;2023-11-19T10:50:00;2.42;;;0.50;;
74679;SDS011;63211;48.548;2.704;2023-11-19T10:52:27;4.07;;;0.60;;
74679;SDS011;63211;48.548;2.704;2023-11-19T10:54:54;1.83;;;0.40;;
74679;SDS011;63211;48.548;2.704;2023-11-19T10:57:25;0.80;;;0.40;;
74679;SDS011;63211;48.548;2.704;2023-11-19T11:00:00;2.22;;;0.55;;
74679;SDS011;63211;48.548;2.704;2023-11-19T11:04:59;3.00;;;0.50;;
74679;SDS011;63211;48.548;2.704;2023-11-19T11:07:28;2.58;;;0.75;;
74679;SDS011;63211;48.548;2.704;2023-11-19T11:09:57;1.65;;;0.40;;
74679;SDS011;63211;48.548;2.704;2023-11-19T11:12:24;1.30;;;0.35;;
74679;SDS011;63211;48.548;2.704;2023-11-19T11:14:52;1.67;;;0.40;;
74679;SDS011;63211;48.548;2.704;2023-11-19T11:17:20;1.90;;;0.40;;
74679;SDS011;63211;48.548;2.704;2023-11-19T11:19:55;0.85;;;0.20;;
74679;SDS011;63211;48.548;2.704;2023-11-19T11:22:22;1.95;;;0.30;;
74679;SDS011;63211;48.548;2.704;2023-11-19T11:25:08;2.45;;;0.50;;
74679;SDS011;63211;48.548;2.704;2023-11-19T11:30:46;1.00;;;0.28;;
74679;SDS011;63211;48.548;2.704;2023-11-19T11:33:26;3.05;;;0.40;;
74679;SDS011;63211;48.548;2.704;2023-11-19T11:36:05;1.90;;;0.50;;
74679;SDS011;63211;48.548;2.704;2023-11-19T11:38:39;3.25;;;0.50;;
74679;SDS011;63211;48.548;2.704;2023-11-19T11:41:20;0.60;;;0.20;;
74679;SDS011;63211;48.548;2.704;2023-11-19T11:43:48;1.58;;;0.40;;
74679;SDS011;63211;48.548;2.704;2023-11-19T11:49:24;0.80;;;0.40;;
74679;SDS011;63211;48.548;2.704;2023-11-19T11:52:00;1.98;;;0.60;;
74679;SDS011;63211;48.548;2.704;2023-11-19T11:54:28;2.40;;;0.75;;
74679;SDS011;63211;48.548;2.704;2023-11-19T11:57:02;3.83;;;0.50;;
74679;SDS011;63211;48.548;2.704;2023-11-19T11:59:45;1.95;;;0.45;;
74679;SDS011;63211;48.548;2.704;2023-11-19T12:02:13;2.92;;;0.50;;
74679;SDS011;63211;48.548;2.704;2023-11-19T12:04:41;2.85;;;0.50;;
74679;SDS011;63211;48.548;2.704;2023-11-19T12:07:12;4.05;;;0.50;;
74679;SDS011;63211;48.548;2.704;2023-11-19T12:09:40;1.25;;;0.45;;
74679;SDS011;63211;48.548;2.704;2023-11-19T12:12:07;1.27;;;0.25;;
74679;SDS011;63211;48.548;2.704;2023-11-19T12:17:42;0.90;;;0.20;;
74679;SDS011;63211;48.548;2.704;2023-11-19T12:20:14;1.48;;;0.47;;
74679;SDS011;63211;48.548;2.704;2023-11-19T12:22:43;1.92;;;0.60;;
74679;SDS011;63211;48.548;2.704;2023-11-19T12:25:11;3.35;;;1.13;;
74679;SDS011;63211;48.548;2.704;2023-11-19T12:27:39;6.55;;;0.50;;
74679;SDS011;63211;48.548;2.704;2023-11-19T12:30:06;5.90;;;0.80;;
74679;SDS011;63211;48.548;2.704;2023-11-19T12:32:37;5.10;;;0.82;;
74679;SDS011;63211;48.548;2.704;2023-11-19T12:35:07;3.65;;;0.85;;
74679;SDS011;63211;48.548;2.704;2023-11-19T12:37:39;5.10;;;1.08;;
74679;SDS011;63211;48.548;2.704;2023-11-19T12:40:12;2.95;;;0.80;;
74679;SDS011;63211;48.548;2.704;2023-11-19T12:42:40;4.18;;;0.68;;
74679;SDS011;63211;48.548;2.704;2023-11-19T12:45:07;6.80;;;0.93;;
74679;SDS011;63211;48.548;2.704;2023-11-19T12:47:35;4.93;;;0.75;;
74679;SDS011;63211;48.548;2.704;2023-11-19T12:50:02;2.05;;;0.63;;
74679;SDS011;63211;48.548;2.704;2023-11-19T12:52:29;6.82;;;1.10;;
74679;SDS011;63211;48.548;2.704;2023-11-19T12:54:55;8.00;;;1.63;;
74679;SDS011;63211;48.548;2.704;2023-11-19T12:57:36;7.13;;;1.02;;
74679;SDS011;63211;48.548;2.704;2023-11-19T13:00:04;5.93;;;0.90;;
74679;SDS011;63211;48.548;2.704;2023-11-19T13:02:46;5.85;;;1.10;;
74679;SDS011;63211;48.548;2.704;2023-11-19T13:05:24;3.00;;;0.77;;
74679;SDS011;63211;48.548;2.704;2023-11-19T13:07:57;4.18;;;0.60;;
74679;SDS011;63211;48.548;2.704;2023-11-19T13:10:25;4.50;;;0.70;;
74679;SDS011;63211;48.548;2.704;2023-11-19T13:13:01;3.47;;;0.90;;
74679;SDS011;63211;48.548;2.704;2023-11-19T13:15:31;3.78;;;0.55;;
74679;SDS011;63211;48.548;2.704;2023-11-19T13:17:58;2.58;;;0.52;;
74679;SDS011;63211;48.548;2.704;2023-11-19T13:20:24;3.92;;;0.70;;
74679;SDS011;63211;48.548;2.704;2023-11-19T13:22:55;5.93;;;0.63;;
74679;SDS011;63211;48.548;2.704;2023-11-19T13:25:22;4.22;;;0.60;;
74679;SDS011;63211;48.548;2.704;2023-11-19T13:27:48;1.95;;;0.43;;
74679;SDS011;63211;48.548;2.704;2023-11-19T13:30:17;6.13;;;1.23;;
74679;SDS011;63211;48.548;2.704;2023-11-19T13:32:44;2.28;;;0.38;;
74679;SDS011;63211;48.548;2.704;2023-11-19T13:35:11;3.58;;;0.65;;
74679;SDS011;63211;48.548;2.704;2023-11-19T13:37:37;4.57;;;1.00;;
74679;SDS011;63211;48.548;2.704;2023-11-19T13:40:04;3.83;;;0.80;;
74679;SDS011;63211;48.548;2.704;2023-11-19T13:42:32;1.70;;;0.52;;
74679;SDS011;63211;48.548;2.704;2023-11-19T13:44:59;2.83;;;0.73;;
74679;SDS011;63211;48.548;2.704;2023-11-19T13:47:26;4.20;;;0.70;;
74679;SDS011;63211;48.548;2.704;2023-11-19T13:49:53;5.93;;;0.90;;
74679;SDS011;63211;48.548;2.704;2023-11-19T13:52:19;3.88;;;0.80;;
74679;SDS011;63211;48.548;2.704;2023-11-19T13:54:46;2.00;;;0.45;;
74679;SDS011;63211;48.548;2.704;2023-11-19T13:57:12;4.00;;;0.30;;
74679;SDS011;63211;48.548;2.704;2023-11-19T13:59:39;2.65;;;0.50;;
74679;SDS011;63211;48.548;2.704;2023-11-19T14:02:06;4.35;;;0.65;;
74679;SDS011;63211;48.548;2.704;2023-11-19T14:04:34;4.22;;;0.75;;
74679;SDS011;63211;48.548;2.704;2023-11-19T14:07:00;3.25;;;0.70;;
74679;SDS011;63211;48.548;2.704;2023-11-19T14:09:28;3.33;;;0.40;;
74679;SDS011;63211;48.548;2.704;2023-11-19T14:11:55;2.47;;;0.65;;
74679;SDS011;63211;48.548;2.704;2023-11-19T14:14:22;2.47;;;0.50;;
74679;SDS011;63211;48.548;2.704;2023-11-19T14:16:49;1.98;;;0.32;;
74679;SDS011;63211;48.548;2.704;2023-11-19T14:19:15;2.83;;;0.85;;
74679;SDS011;63211;48.548;2.704;2023-11-19T14:21:43;2.08;;;0.40;;
74679;SDS011;63211;48.548;2.704;2023-11-19T14:24:10;4.00;;;0.55;;
74679;SDS011;63211;48.548;2.704;2023-11-19T14:26:36;5.80;;;1.00;;
74679;SDS011;63211;48.548;2.704;2023-11-19T14:29:03;2.28;;;0.38;;
74679;SDS011;63211;48.548;2.704;2023-11-19T14:31:29;2.78;;;0.50;;
74679;SDS011;63211;48.548;2.704;2023-11-19T14:33:57;2.92;;;0.60;;
74679;SDS011;63211;48.548;2.704;2023-11-19T14:36:23;4.63;;;1.05;;
74679;SDS011;63211;48.548;2.704;2023-11-19T14:38:51;4.35;;;0.57;;
74679;SDS011;63211;48.548;2.704;2023-11-19T14:41:18;2.22;;;0.60;;
74679;SDS011;63211;48.548;2.704;2023-11-19T14:43:44;2.50;;;0.57;;
74679;SDS011;63211;48.548;2.704;2023-11-19T14:46:12;3.17;;;0.50;;
74679;SDS011;63211;48.548;2.704;2023-11-19T14:48:38;6.93;;;0.77;;
74679;SDS011;63211;48.548;2.704;2023-11-19T14:51:05;3.80;;;0.63;;
74679;SDS011;63211;48.548;2.704;2023-11-19T14:53:32;2.63;;;0.52;;
74679;SDS011;63211;48.548;2.704;2023-11-19T14:56:01;4.15;;;0.88;;
74679;SDS011;63211;48.548;2.704;2023-11-19T14:58:27;2.55;;;0.43;;
74679;SDS011;63211;48.548;2.704;2023-11-19T15:00:54;3.13;;;0.70;;
74679;SDS011;63211;48.548;2.704;2023-11-19T15:03:20;2.50;;;0.68;;
74679;SDS011;63211;48.548;2.704;2023-11-19T15:05:47;2.97;;;0.40;;
74679;SDS011;63211;48.548;2.704;2023-11-19T15:08:15;3.03;;;0.80;;